Terminal Aerodrome Forecast
Issued by NWS St Louis, MO

Home | Current Version | Previous Version | Text Only | Print | Product List | Glossary On
Versions: 1 2 3 4 5 6 7 8 9 10 11 12 13 14 15 16 17 18 19 20 21 22 23 24 25 26 27 28
000
FTUS43 KLSX 302057 AAA
TAFSTL
TAF AMD
KSTL 302057Z 3021/0124 20010KT P6SM BKN040
      TEMPO 3022/0101 4SM TSRA BR BKN028CB
     FM010300 25005KT P6SM SCT040
     FM010600 27003KT 5SM BR SCT060
     FM011500 29009KT P6SM BKN040=

USA.gov is the U.S. government's official web portal to all federal, state and local government web resources and services.